Time;durP1;ratioP1;P1;durP2;ratioP2;P2;SDS_P1;SDS_P2;PMS_P1;PMS_P2;Temp;Humidity;BMP_temperature;BMP_pressure;BME280_temperature;BME280_humidity;BME280_pressure;Samples;Min_cycle;Max_cycle;Signal;HPM_P1;HPM_P2
2021/09/23 00:02:16;;;;;;;28.40;26.37;;;10.80;93.00;;;;;;5042502;28;20467;-70
2021/09/23 00:04:44;;;;;;;28.43;26.60;;;10.80;93.00;;;;;;5043690;28;20825;-71
2021/09/23 00:07:11;;;;;;;27.70;25.90;;;10.80;92.80;;;;;;5049988;28;20463;-71
2021/09/23 00:09:38;;;;;;;27.93;26.17;;;10.70;93.00;;;;;;5045177;28;20573;-71
2021/09/23 00:12:05;;;;;;;27.37;25.50;;;10.70;93.00;;;;;;5050546;28;20553;-71
2021/09/23 00:14:32;;;;;;;27.70;25.90;;;10.70;93.30;;;;;;5049165;28;20896;-71
2021/09/23 00:17:00;;;;;;;27.87;25.87;;;10.60;94.10;;;;;;5045199;28;20541;-71
2021/09/23 00:19:27;;;;;;;27.80;25.87;;;10.60;93.80;;;;;;5041266;28;20865;-71
2021/09/23 00:21:54;;;;;;;28.87;26.70;;;10.60;93.50;;;;;;5047195;28;20473;-71
2021/09/23 00:24:21;;;;;;;28.33;26.40;;;10.60;93.20;;;;;;5049586;28;20473;-71
2021/09/23 00:26:48;;;;;;;28.33;26.43;;;10.60;92.90;;;;;;5046489;28;20478;-71
2021/09/23 00:29:15;;;;;;;27.43;25.63;;;10.60;93.10;;;;;;5046263;28;20500;-71
2021/09/23 00:31:42;;;;;;;29.00;27.10;;;10.60;93.20;;;;;;5045220;28;21244;-71
2021/09/23 00:34:10;;;;;;;28.67;26.77;;;10.50;93.60;;;;;;5046729;28;20451;-71
2021/09/23 00:36:37;;;;;;;28.23;26.30;;;10.50;93.70;;;;;;5046822;28;20570;-71
2021/09/23 00:39:04;;;;;;;28.17;26.13;;;10.60;93.70;;;;;;5045218;28;20817;-71
2021/09/23 00:41:31;;;;;;;29.10;27.17;;;10.50;93.70;;;;;;5039061;28;20455;-71
2021/09/23 00:43:58;;;;;;;28.13;26.13;;;10.50;93.80;;;;;;5046004;28;21046;-71
2021/09/23 00:46:25;;;;;;;26.83;25.03;;;10.60;94.10;;;;;;5042688;28;20991;-71
2021/09/23 00:48:51;;;;;;;27.43;25.73;;;10.60;94.20;;;;;;5046534;28;20485;-71
2021/09/23 00:51:20;;;;;;;27.80;25.57;;;10.50;93.90;;;;;;5044761;28;20479;-71
2021/09/23 00:53:48;;;;;;;28.00;25.93;;;10.60;93.90;;;;;;5038709;28;20547;-70
2021/09/23 00:56:15;;;;;;;28.23;26.00;;;10.50;93.80;;;;;;5041154;28;20460;-70
2021/09/23 00:58:41;;;;;;;27.57;25.77;;;10.60;93.70;;;;;;5049020;28;20464;-69
2021/09/23 01:01:08;;;;;;;28.57;26.40;;;10.60;93.70;;;;;;5045563;28;20913;-69
2021/09/23 01:03:36;;;;;;;27.10;25.23;;;10.50;93.60;;;;;;5039319;28;20474;-69
2021/09/23 01:06:03;;;;;;;26.53;24.50;;;10.50;93.40;;;;;;5047927;28;20465;-69
2021/09/23 01:08:32;;;;;;;27.37;25.47;;;10.50;93.20;;;;;;5054272;28;21271;-71
2021/09/23 01:10:59;;;;;;;27.03;25.43;;;10.40;93.40;;;;;;5049440;28;20556;-70
2021/09/23 01:13:25;;;;;;;27.45;25.75;;;10.50;93.60;;;;;;5044627;28;20460;-70
2021/09/23 01:15:52;;;;;;;27.83;26.03;;;10.50;93.70;;;;;;5049145;28;20544;-71
2021/09/23 01:18:20;;;;;;;28.07;25.97;;;10.50;93.60;;;;;;5050243;28;20459;-70
2021/09/23 01:20:47;;;;;;;27.47;25.40;;;10.50;93.80;;;;;;5042954;28;20470;-69
2021/09/23 01:23:15;;;;;;;28.03;25.83;;;10.50;94.00;;;;;;5047970;28;20917;-69
2021/09/23 01:25:42;;;;;;;27.87;25.40;;;10.50;93.90;;;;;;5042156;28;21051;-70
2021/09/23 01:28:10;;;;;;;27.47;25.57;;;10.50;94.10;;;;;;5039986;28;20481;-70
2021/09/23 01:30:37;;;;;;;28.13;26.23;;;10.40;94.20;;;;;;5039301;28;20479;-69
2021/09/23 01:33:04;;;;;;;27.75;25.85;;;10.40;94.30;;;;;;5059149;28;20455;-69
2021/09/23 01:35:31;;;;;;;27.93;25.93;;;10.50;93.90;;;;;;5047495;28;22283;-69
2021/09/23 01:37:58;;;;;;;30.67;27.98;;;10.40;93.70;;;;;;5048185;28;20463;-70
2021/09/23 01:40:26;;;;;;;28.70;26.15;;;10.40;93.60;;;;;;5046450;28;20213;-70
2021/09/23 01:42:53;;;;;;;28.90;26.80;;;10.40;94.40;;;;;;5040804;28;20227;-70
2021/09/23 01:45:20;;;;;;;28.45;26.40;;;10.30;94.00;;;;;;5042766;28;20550;-69
2021/09/23 01:47:47;;;;;;;29.17;26.87;;;10.30;94.00;;;;;;5040394;28;20280;-70
2021/09/23 01:50:16;;;;;;;29.07;26.90;;;10.20;94.00;;;;;;5048391;28;20581;-70
2021/09/23 01:52:43;;;;;;;29.60;27.07;;;10.30;93.90;;;;;;5050074;28;20998;-69
2021/09/23 01:55:11;;;;;;;30.65;28.25;;;10.30;94.00;;;;;;5037049;28;20751;-69
2021/09/23 01:57:39;;;;;;;28.13;26.23;;;10.20;95.80;;;;;;5048596;28;20211;-70
2021/09/23 02:00:07;;;;;;;28.10;26.00;;;10.20;95.70;;;;;;5041567;28;20487;-69
2021/09/23 02:02:34;;;;;;;28.73;26.40;;;10.20;94.60;;;;;;5038005;28;20545;-70
2021/09/23 02:05:01;;;;;;;27.87;25.93;;;10.10;94.20;;;;;;5036691;28;20841;-69
2021/09/23 02:07:28;;;;;;;27.93;26.03;;;10.10;94.20;;;;;;5053541;28;20807;-69
2021/09/23 02:09:54;;;;;;;28.50;26.52;;;10.10;94.00;;;;;;5040244;28;20494;-70
2021/09/23 02:12:22;;;;;;;29.25;27.17;;;10.00;93.90;;;;;;5047868;28;20667;-69
2021/09/23 02:14:50;;;;;;;28.55;26.42;;;10.00;94.10;;;;;;5041524;28;20200;-69
2021/09/23 02:17:17;;;;;;;28.52;26.52;;;10.00;93.80;;;;;;5047115;28;20196;-69
2021/09/23 02:19:44;;;;;;;27.60;25.65;;;10.00;93.60;;;;;;5038263;28;20213;-69
2021/09/23 02:22:11;;;;;;;27.70;25.88;;;9.90;93.80;;;;;;5041445;28;20207;-69
2021/09/23 02:24:38;;;;;;;27.95;25.92;;;10.00;93.80;;;;;;5041053;28;20213;-69
2021/09/23 02:27:06;;;;;;;28.08;25.85;;;10.00;93.30;;;;;;5036955;28;20284;-69
2021/09/23 02:29:34;;;;;;;26.20;24.30;;;9.90;93.30;;;;;;5042992;28;20216;-70
2021/09/23 02:32:02;;;;;;;28.10;25.98;;;9.80;93.60;;;;;;5050821;28;20565;-69
2021/09/23 02:34:29;;;;;;;26.38;24.58;;;9.80;93.60;;;;;;5043389;28;20593;-69
2021/09/23 02:36:56;;;;;;;27.98;25.90;;;9.80;93.40;;;;;;5044533;28;20210;-69
2021/09/23 02:39:23;;;;;;;28.45;26.55;;;9.80;93.50;;;;;;5047969;28;20224;-69
2021/09/23 02:41:50;;;;;;;28.70;26.35;;;9.70;94.70;;;;;;5043667;28;20200;-69
2021/09/23 02:44:18;;;;;;;27.70;25.80;;;9.70;94.60;;;;;;5040563;28;20716;-69
2021/09/23 02:46:45;;;;;;;28.23;26.13;;;9.60;94.40;;;;;;5047278;28;20189;-69
2021/09/23 02:49:13;;;;;;;28.15;26.13;;;9.60;94.30;;;;;;5046032;28;20200;-69
2021/09/23 02:51:40;;;;;;;27.25;25.40;;;9.60;94.30;;;;;;5041677;28;20204;-69
2021/09/23 02:54:07;;;;;;;28.95;26.88;;;9.60;94.30;;;;;;5043985;28;20200;-69
2021/09/23 02:56:39;;;;;;;29.48;27.13;;;9.60;94.30;;;;;;5044145;28;20215;-69
2021/09/23 02:59:06;;;;;;;29.52;27.15;;;9.60;94.30;;;;;;5051500;28;20215;-69
2021/09/23 03:01:33;;;;;;;28.70;26.73;;;9.60;94.20;;;;;;5050428;28;20200;-69
2021/09/23 03:04:00;;;;;;;30.17;28.00;;;9.60;94.20;;;;;;5045465;28;20678;-71
2021/09/23 03:06:28;;;;;;;28.77;26.88;;;9.60;94.30;;;;;;5046303;28;20199;-69
2021/09/23 03:08:55;;;;;;;28.40;26.45;;;9.50;94.20;;;;;;5047075;28;20231;-70
2021/09/23 03:11:22;;;;;;;27.40;25.50;;;9.60;94.20;;;;;;5047457;28;20281;-69
2021/09/23 03:13:49;;;;;;;29.02;26.90;;;9.60;93.90;;;;;;5044031;28;20190;-69
2021/09/23 03:16:16;;;;;;;31.85;29.35;;;9.50;94.30;;;;;;5037499;28;20197;-69
2021/09/23 03:18:45;;;;;;;29.30;27.15;;;9.50;94.50;;;;;;5046190;28;20280;-69
2021/09/23 03:21:11;;;;;;;29.33;27.15;;;9.50;94.40;;;;;;5049504;28;20217;-69
2021/09/23 03:23:40;;;;;;;29.50;27.50;;;9.50;94.40;;;;;;5053382;28;20212;-69
2021/09/23 03:26:07;;;;;;;28.27;26.48;;;9.50;94.40;;;;;;5049174;28;20200;-69
2021/09/23 03:28:34;;;;;;;29.85;27.90;;;9.50;94.20;;;;;;5036687;28;20193;-69
2021/09/23 03:31:01;;;;;;;29.50;27.17;;;9.50;94.10;;;;;;5052487;28;20226;-69
2021/09/23 03:33:28;;;;;;;30.85;28.55;;;9.40;94.20;;;;;;5055317;28;20284;-70
2021/09/23 03:35:55;;;;;;;29.40;27.35;;;9.40;94.30;;;;;;5046481;28;20195;-69
2021/09/23 03:38:23;;;;;;;30.45;28.35;;;9.40;94.60;;;;;;5039530;28;20232;-69
2021/09/23 03:40:51;;;;;;;29.55;27.45;;;9.40;94.90;;;;;;5049471;28;20220;-69
2021/09/23 03:43:19;;;;;;;30.73;28.40;;;9.40;94.90;;;;;;5054735;28;20197;-69
2021/09/23 03:45:47;;;;;;;29.92;27.83;;;9.40;94.90;;;;;;5042945;28;20202;-69
2021/09/23 03:48:14;;;;;;;31.25;29.10;;;9.40;94.70;;;;;;5043941;28;20278;-70
2021/09/23 03:50:41;;;;;;;29.10;26.80;;;9.40;94.20;;;;;;5046118;28;20220;-70
2021/09/23 03:53:08;;;;;;;29.85;27.65;;;9.40;94.40;;;;;;5056948;28;20197;-70
2021/09/23 03:55:35;;;;;;;29.65;27.55;;;9.30;94.50;;;;;;5042704;28;20203;-70
2021/09/23 03:58:03;;;;;;;30.60;28.60;;;9.30;94.60;;;;;;5038115;28;20299;-70
2021/09/23 04:00:30;;;;;;;30.70;28.50;;;9.30;94.90;;;;;;5051713;28;20291;-70
2021/09/23 04:02:57;;;;;;;30.05;28.05;;;9.30;94.90;;;;;;5053732;28;20192;-70
2021/09/23 04:05:24;;;;;;;29.30;27.30;;;9.30;95.00;;;;;;5045414;28;20300;-70
2021/09/23 04:07:51;;;;;;;28.83;26.90;;;9.30;94.80;;;;;;5049582;28;20203;-70
2021/09/23 04:10:18;;;;;;;29.10;27.20;;;9.30;94.60;;;;;;5051410;28;20769;-70
2021/09/23 04:12:45;;;;;;;30.88;28.55;;;9.20;94.10;;;;;;5044283;28;20639;-70
2021/09/23 04:15:13;;;;;;;28.65;26.77;;;9.20;94.10;;;;;;5044809;28;20243;-70
2021/09/23 04:17:40;;;;;;;29.42;27.35;;;9.20;94.20;;;;;;5062620;28;20200;-70
2021/09/23 04:20:08;;;;;;;30.60;28.55;;;9.10;94.40;;;;;;5042809;28;20224;-70
2021/09/23 04:22:35;;;;;;;32.20;29.70;;;9.10;94.60;;;;;;5046269;28;20565;-70
2021/09/23 04:25:02;;;;;;;29.92;27.50;;;9.10;94.80;;;;;;5052138;28;20710;-70
2021/09/23 04:27:29;;;;;;;31.02;28.75;;;9.10;94.60;;;;;;5042505;28;20207;-70
2021/09/23 04:29:55;;;;;;;31.23;28.67;;;9.10;94.30;;;;;;5041694;28;20304;-70
2021/09/23 04:32:24;;;;;;;31.83;29.63;;;9.10;94.40;;;;;;5042026;28;20279;-70
2021/09/23 04:34:51;;;;;;;31.08;28.85;;;9.10;94.50;;;;;;5043821;28;20192;-70
2021/09/23 04:37:18;;;;;;;30.40;28.40;;;9.10;94.30;;;;;;5044816;28;20732;-70
2021/09/23 04:39:45;;;;;;;32.30;29.95;;;9.10;94.20;;;;;;5035804;28;20296;-71
2021/09/23 04:42:12;;;;;;;29.90;27.52;;;9.20;94.00;;;;;;5046250;28;20722;-70
2021/09/23 04:44:39;;;;;;;30.73;28.33;;;9.20;94.20;;;;;;5038396;28;20224;-71
2021/09/23 04:47:06;;;;;;;32.28;29.98;;;9.10;94.50;;;;;;5049668;28;20211;-70
2021/09/23 04:49:34;;;;;;;31.13;28.58;;;9.20;94.50;;;;;;5034291;28;20231;-69
2021/09/23 04:52:01;;;;;;;32.10;29.55;;;9.20;94.40;;;;;;5050781;28;20284;-69
2021/09/23 04:54:28;;;;;;;30.50;28.23;;;9.20;94.40;;;;;;5047759;28;20200;-69
2021/09/23 04:56:55;;;;;;;30.15;27.90;;;9.20;94.20;;;;;;5042118;28;20212;-69
2021/09/23 04:59:22;;;;;;;32.20;29.88;;;9.20;94.50;;;;;;5037395;28;20583;-69
2021/09/23 05:01:48;;;;;;;31.73;29.30;;;9.20;94.70;;;;;;5050114;28;20291;-70
2021/09/23 05:04:16;;;;;;;33.25;30.75;;;9.20;94.80;;;;;;5043620;28;20708;-70
2021/09/23 05:06:44;;;;;;;30.77;28.67;;;9.20;94.90;;;;;;5046923;28;20196;-69
2021/09/23 05:09:11;;;;;;;31.45;29.15;;;9.30;94.80;;;;;;5039086;28;20200;-69
2021/09/23 05:11:38;;;;;;;33.08;30.48;;;9.30;94.80;;;;;;5052874;28;20284;-69
2021/09/23 05:14:06;;;;;;;32.60;30.10;;;9.30;94.90;;;;;;5051172;28;20547;-69
2021/09/23 05:16:33;;;;;;;32.60;30.10;;;9.40;94.90;;;;;;5048436;28;20271;-69
2021/09/23 05:19:00;;;;;;;31.85;29.30;;;9.40;94.90;;;;;;5042656;28;20204;-69
2021/09/23 05:21:27;;;;;;;32.00;29.60;;;9.40;94.50;;;;;;5043326;28;20209;-70
2021/09/23 05:23:55;;;;;;;32.30;29.50;;;9.60;94.10;;;;;;5039845;28;20231;-69
2021/09/23 05:26:22;;;;;;;31.15;28.70;;;9.50;94.10;;;;;;5050304;28;20200;-70
2021/09/23 05:28:49;;;;;;;31.35;28.85;;;9.50;94.10;;;;;;5038685;28;20189;-71
2021/09/23 05:31:16;;;;;;;32.38;29.70;;;9.50;94.20;;;;;;5044277;28;20224;-71
2021/09/23 05:33:44;;;;;;;31.58;29.10;;;9.50;94.30;;;;;;5037899;28;20211;-70
2021/09/23 05:36:11;;;;;;;31.75;29.40;;;9.50;94.40;;;;;;5046232;28;20641;-71
2021/09/23 05:38:38;;;;;;;31.60;29.25;;;9.60;94.00;;;;;;5043674;28;20188;-70
2021/09/23 05:41:07;;;;;;;29.83;27.67;;;9.70;93.80;;;;;;5046998;28;20691;-71
2021/09/23 05:43:34;;;;;;;31.95;29.63;;;9.70;93.30;;;;;;5038938;28;20683;-71
2021/09/23 05:46:00;;;;;;;31.77;29.13;;;9.80;93.00;;;;;;5036016;28;20221;-71
2021/09/23 05:48:28;;;;;;;29.20;26.95;;;9.70;92.90;;;;;;5042122;28;20659;-72
2021/09/23 05:50:55;;;;;;;30.92;28.40;;;9.80;92.60;;;;;;5043014;28;20464;-70
2021/09/23 05:53:22;;;;;;;30.20;28.10;;;9.80;92.80;;;;;;5049895;28;20454;-70
2021/09/23 05:55:49;;;;;;;29.10;27.20;;;9.80;92.60;;;;;;5044453;28;20734;-69
2021/09/23 05:58:17;;;;;;;28.52;26.48;;;9.90;92.50;;;;;;5043154;28;20532;-70
2021/09/23 06:00:44;;;;;;;31.20;29.08;;;9.90;91.90;;;;;;5040356;28;20209;-70
2021/09/23 06:03:11;;;;;;;29.13;27.15;;;9.90;91.70;;;;;;5039760;28;20660;-70
2021/09/23 06:05:37;;;;;;;29.83;27.92;;;9.90;92.80;;;;;;5033974;28;20212;-69
2021/09/23 06:08:05;;;;;;;30.80;28.58;;;10.00;93.60;;;;;;5040429;28;20205;-69
2021/09/23 06:10:32;;;;;;;29.20;26.83;;;10.00;92.90;;;;;;5042005;28;20217;-70
2021/09/23 06:12:59;;;;;;;29.85;27.67;;;10.00;92.10;;;;;;5042956;28;20196;-69
2021/09/23 06:15:28;;;;;;;29.30;27.30;;;10.00;92.10;;;;;;5042289;28;20197;-71
2021/09/23 06:17:54;;;;;;;29.70;27.50;;;10.10;91.80;;;;;;5044227;28;20200;-70
2021/09/23 06:20:21;;;;;;;28.42;26.40;;;10.10;92.50;;;;;;5043049;28;20485;-70
2021/09/23 06:22:50;;;;;;;30.17;27.75;;;10.20;92.20;;;;;;5045899;28;20544;-69
2021/09/23 06:25:17;;;;;;;31.63;29.33;;;10.50;92.10;;;;;;5048135;28;20223;-70
2021/09/23 06:27:44;;;;;;;29.60;27.53;;;10.50;91.10;;;;;;5048148;28;20458;-70
2021/09/23 06:30:12;;;;;;;31.47;28.63;;;10.60;90.90;;;;;;5039483;28;20478;-70
2021/09/23 06:32:41;;;;;;;33.83;30.43;;;10.70;90.70;;;;;;5045154;28;20448;-70
2021/09/23 06:35:09;;;;;;;32.03;29.30;;;10.80;90.60;;;;;;5043754;28;20463;-70
2021/09/23 06:37:39;;;;;;;32.40;29.70;;;10.90;90.50;;;;;;5052084;28;20461;-70
2021/09/23 06:40:09;;;;;;;33.43;30.43;;;11.00;90.40;;;;;;5048224;28;21028;-70
2021/09/23 06:42:36;;;;;;;34.87;31.77;;;11.00;90.70;;;;;;5050528;28;20454;-70
2021/09/23 06:45:04;;;;;;;35.23;31.73;;;11.20;90.10;;;;;;5046953;28;21034;-71
2021/09/23 06:47:31;;;;;;;40.10;34.30;;;11.20;89.80;;;;;;5050513;28;20465;-70
2021/09/23 06:49:59;;;;;;;44.83;37.00;;;11.30;89.50;;;;;;5049868;28;20491;-70
2021/09/23 06:52:26;;;;;;;42.60;36.13;;;11.50;89.40;;;;;;5052025;28;20455;-70
2021/09/23 06:54:53;;;;;;;37.87;33.77;;;11.60;89.50;;;;;;5050702;28;20459;-70
2021/09/23 06:57:20;;;;;;;33.87;30.50;;;11.80;89.70;;;;;;5055744;28;20450;-70
2021/09/23 06:59:47;;;;;;;32.13;29.63;;;11.90;91.10;;;;;;5049138;28;20481;-71
2021/09/23 07:02:14;;;;;;;33.77;30.80;;;12.00;91.30;;;;;;5050753;28;20461;-70
2021/09/23 07:04:41;;;;;;;34.17;31.00;;;12.20;91.10;;;;;;5046132;28;20996;-71
2021/09/23 07:07:09;;;;;;;33.37;30.47;;;12.30;90.50;;;;;;5052351;28;20462;-71
2021/09/23 07:09:36;;;;;;;33.67;30.87;;;12.40;90.40;;;;;;5038967;28;20483;-72
2021/09/23 07:12:03;;;;;;;32.80;30.20;;;12.60;89.70;;;;;;5045960;28;20469;-72
2021/09/23 07:14:30;;;;;;;30.63;28.43;;;12.70;87.50;;;;;;5044779;28;20455;-72
2021/09/23 07:16:57;;;;;;;34.10;31.20;;;12.70;87.40;;;;;;5049518;28;20451;-72
2021/09/23 07:19:24;;;;;;;33.40;30.73;;;12.80;87.60;;;;;;5036324;28;20479;-70
2021/09/23 07:21:51;;;;;;;32.87;30.43;;;12.90;86.10;;;;;;5049221;28;20502;-71
2021/09/23 07:24:19;;;;;;;34.43;31.90;;;12.90;85.30;;;;;;5043495;28;20538;-71
2021/09/23 07:26:46;;;;;;;33.30;30.83;;;13.00;85.60;;;;;;5041445;28;21082;-71
2021/09/23 07:29:15;;;;;;;33.80;31.20;;;13.20;85.50;;;;;;5044641;28;20466;-71
2021/09/23 07:31:42;;;;;;;35.70;32.80;;;13.40;85.00;;;;;;5037545;28;20554;-71
2021/09/23 07:34:09;;;;;;;32.83;29.97;;;13.50;84.60;;;;;;5043305;28;20477;-71
2021/09/23 07:36:37;;;;;;;33.17;30.70;;;13.60;83.80;;;;;;5046378;28;20461;-72
2021/09/23 07:39:06;;;;;;;36.10;33.43;;;13.80;83.00;;;;;;5039912;28;20460;-71
2021/09/23 07:41:37;;;;;;;35.70;32.90;;;13.90;81.40;;;;;;5059331;28;20462;-72
2021/09/23 07:44:04;;;;;;;35.93;33.53;;;13.90;80.80;;;;;;5031374;28;20464;-72
2021/09/23 07:46:31;;;;;;;36.90;34.33;;;13.90;80.90;;;;;;5046491;28;21326;-72
2021/09/23 07:48:58;;;;;;;35.43;32.57;;;13.90;81.30;;;;;;5042283;28;20470;-73
2021/09/23 07:51:25;;;;;;;35.07;32.67;;;13.90;81.70;;;;;;5034598;28;20966;-76
2021/09/23 07:53:52;;;;;;;33.97;31.57;;;14.00;82.00;;;;;;5036086;28;20799;-73
2021/09/23 07:56:19;;;;;;;35.20;32.80;;;14.10;81.70;;;;;;5054669;28;20944;-73
2021/09/23 07:58:47;;;;;;;34.83;32.13;;;14.30;81.20;;;;;;5039260;28;20973;-73
2021/09/23 08:01:15;;;;;;;36.87;33.87;;;14.40;80.60;;;;;;5048358;28;20484;-73
2021/09/23 08:03:42;;;;;;;36.53;33.80;;;14.50;80.10;;;;;;5039071;28;20460;-73
2021/09/23 08:06:09;;;;;;;35.87;33.27;;;14.50;79.80;;;;;;5037116;28;20487;-73
2021/09/23 08:08:36;;;;;;;34.10;31.60;;;14.60;79.30;;;;;;5046785;28;20474;-73
2021/09/23 08:11:02;;;;;;;33.50;31.10;;;14.60;79.40;;;;;;5033715;28;21048;-72
2021/09/23 08:13:29;;;;;;;34.60;32.20;;;14.70;79.50;;;;;;5043289;28;20465;-73
2021/09/23 08:15:58;;;;;;;33.80;31.23;;;14.80;79.20;;;;;;5038280;28;20560;-73
2021/09/23 08:18:24;;;;;;;34.07;31.50;;;14.90;78.50;;;;;;5045625;28;20464;-73
2021/09/23 08:20:51;;;;;;;35.20;32.90;;;15.00;78.20;;;;;;5050802;28;20497;-73
2021/09/23 08:23:18;;;;;;;35.77;33.23;;;15.10;77.90;;;;;;5047675;28;20548;-73
2021/09/23 08:25:46;;;;;;;32.97;30.87;;;15.30;77.20;;;;;;5050811;28;20569;-73
2021/09/23 08:28:13;;;;;;;35.07;32.17;;;15.40;76.40;;;;;;5038703;28;20464;-74
2021/09/23 08:30:42;;;;;;;33.33;30.73;;;15.50;76.00;;;;;;5043737;28;20564;-73
2021/09/23 08:33:10;;;;;;;33.37;31.17;;;15.70;75.40;;;;;;5041512;28;20451;-73
2021/09/23 08:35:37;;;;;;;35.23;32.53;;;15.70;75.40;;;;;;5036808;28;20972;-73
2021/09/23 08:38:04;;;;;;;31.97;29.67;;;15.90;74.90;;;;;;5052151;28;20490;-74
2021/09/23 08:40:38;;;;;;;32.50;30.50;;;16.00;74.00;;;;;;5049507;28;20470;-74
2021/09/23 08:43:05;;;;;;;33.57;31.30;;;16.10;73.50;;;;;;5046737;28;21040;-72
2021/09/23 08:45:32;;;;;;;33.33;30.20;;;16.10;73.60;;;;;;5032069;28;20475;-73
2021/09/23 08:48:00;;;;;;;30.77;28.87;;;16.20;73.30;;;;;;5043137;28;20461;-74
2021/09/23 08:50:28;;;;;;;29.17;27.37;;;16.30;71.40;;;;;;5039052;28;20493;-73
2021/09/23 08:52:56;;;;;;;30.33;28.27;;;16.40;70.60;;;;;;5052653;28;20450;-74
2021/09/23 08:55:25;;;;;;;28.47;26.87;;;16.50;69.80;;;;;;5050938;28;21237;-74
2021/09/23 08:57:52;;;;;;;28.50;26.87;;;16.60;68.70;;;;;;5048055;28;20459;-72
2021/09/23 09:00:21;;;;;;;29.20;27.50;;;16.70;69.00;;;;;;5038164;28;20562;-72
2021/09/23 09:03:00;;;;;;;28.83;27.13;;;16.80;67.80;;;;;;5035939;28;20968;-71
2021/09/23 09:05:29;;;;;;;30.70;28.90;;;17.00;68.00;;;;;;5044447;28;21046;-72
2021/09/23 09:08:01;;;;;;;35.20;32.27;;;17.00;67.90;;;;;;5043269;28;20463;-73
2021/09/23 09:10:28;;;;;;;29.20;27.50;;;17.10;67.80;;;;;;5049376;28;20479;-72
2021/09/23 09:12:55;;;;;;;29.87;28.13;;;17.10;67.40;;;;;;5042214;28;20549;-71
2021/09/23 09:15:33;;;;;;;29.93;28.03;;;17.20;67.50;;;;;;5039599;28;20459;-72
2021/09/23 09:18:12;;;;;;;30.90;28.73;;;17.40;66.90;;;;;;5032400;28;20454;-72
2021/09/23 09:20:56;;;;;;;29.83;27.93;;;17.50;67.00;;;;;;5046662;28;20477;-72
2021/09/23 09:23:23;;;;;;;30.27;28.37;;;17.70;67.00;;;;;;5049529;28;20456;-72
2021/09/23 09:25:50;;;;;;;29.23;27.53;;;17.80;66.20;;;;;;5052735;28;20505;-72
2021/09/23 09:28:19;;;;;;;31.13;29.13;;;17.80;66.20;;;;;;5045468;28;20555;-72
2021/09/23 09:30:46;;;;;;;31.20;29.20;;;18.00;65.80;;;;;;5035685;28;20479;-72
2021/09/23 09:33:14;;;;;;;31.03;29.00;;;18.10;65.40;;;;;;5029881;28;20542;-72
2021/09/23 09:35:44;;;;;;;32.00;29.90;;;18.10;65.70;;;;;;5040555;28;20534;-72
2021/09/23 09:38:12;;;;;;;29.70;28.00;;;18.20;65.10;;;;;;5050417;28;20961;-72
2021/09/23 09:40:42;;;;;;;29.73;28.03;;;18.30;65.00;;;;;;5039330;28;20484;-72
2021/09/23 09:43:11;;;;;;;29.60;27.90;;;18.30;64.50;;;;;;5040989;28;20522;-72
2021/09/23 09:45:38;;;;;;;30.47;28.57;;;18.40;63.90;;;;;;5034833;28;22098;-72
2021/09/23 09:48:06;;;;;;;29.83;27.90;;;18.50;64.20;;;;;;5047151;28;20474;-72
2021/09/23 09:50:35;;;;;;;29.97;27.73;;;18.60;64.00;;;;;;5048826;28;20474;-73
2021/09/23 09:53:04;;;;;;;30.30;28.60;;;18.70;64.20;;;;;;5052324;28;20472;-73
2021/09/23 09:55:34;;;;;;;30.57;28.80;;;18.80;64.50;;;;;;5029778;28;20525;-73
2021/09/23 09:58:03;;;;;;;30.37;28.57;;;18.80;64.00;;;;;;5029170;28;21292;-73
2021/09/23 10:00:32;;;;;;;31.23;29.40;;;18.90;63.30;;;;;;5037567;28;20475;-73
2021/09/23 10:02:59;;;;;;;31.30;29.27;;;19.10;63.40;;;;;;5047429;28;20470;-73
2021/09/23 10:05:26;;;;;;;29.73;28.03;;;19.20;62.70;;;;;;5052349;28;20913;-73
2021/09/23 10:07:54;;;;;;;28.90;27.00;;;19.20;62.80;;;;;;5064314;28;20537;-73
2021/09/23 10:10:24;;;;;;;30.43;28.47;;;19.30;62.90;;;;;;5034508;28;20836;-73
2021/09/23 10:12:59;;;;;;;30.00;28.27;;;19.40;63.30;;;;;;5046206;28;20542;-73
2021/09/23 10:15:27;;;;;;;30.37;28.67;;;19.40;63.30;;;;;;5045616;28;20542;-73
2021/09/23 10:17:59;;;;;;;28.57;26.97;;;19.50;63.30;;;;;;5046835;28;20458;-73
2021/09/23 10:20:27;;;;;;;29.83;28.13;;;19.60;62.90;;;;;;5040156;28;20991;-73
2021/09/23 10:22:55;;;;;;;29.93;28.23;;;19.70;62.60;;;;;;5038422;28;21027;-73
2021/09/23 10:25:25;;;;;;;29.03;27.33;;;19.70;62.40;;;;;;5043612;28;20934;-73
2021/09/23 10:27:58;;;;;;;29.33;27.60;;;19.70;62.10;;;;;;5045420;28;20462;-73
2021/09/23 10:30:27;;;;;;;28.87;27.17;;;19.80;61.60;;;;;;5041256;28;20553;-73
2021/09/23 10:32:55;;;;;;;30.57;28.77;;;19.90;61.40;;;;;;5049573;28;20443;-73
2021/09/23 10:35:23;;;;;;;28.80;27.10;;;20.00;61.40;;;;;;5044876;28;20453;-72
2021/09/23 10:37:51;;;;;;;30.87;29.17;;;20.10;61.40;;;;;;5043480;28;20459;-71
2021/09/23 10:40:18;;;;;;;28.97;27.30;;;20.10;61.70;;;;;;5039475;28;20470;-72
2021/09/23 10:42:45;;;;;;;30.03;28.27;;;20.10;61.80;;;;;;5038427;28;20488;-71
2021/09/23 10:45:15;;;;;;;31.40;29.50;;;20.20;60.90;;;;;;5043088;28;20458;-72
2021/09/23 10:47:46;;;;;;;29.70;28.00;;;20.20;60.70;;;;;;5051313;28;20490;-72
2021/09/23 10:50:14;;;;;;;30.10;28.20;;;20.30;60.30;;;;;;5041156;28;20475;-72
2021/09/23 10:52:42;;;;;;;28.50;26.90;;;20.40;60.00;;;;;;5041238;28;20463;-71
2021/09/23 10:55:10;;;;;;;29.77;27.97;;;20.60;60.20;;;;;;5051479;28;20451;-71
2021/09/23 10:57:37;;;;;;;30.70;28.90;;;20.60;59.90;;;;;;5052171;28;20457;-72
2021/09/23 11:00:07;;;;;;;28.63;26.93;;;20.60;59.20;;;;;;5049688;28;20481;-73
2021/09/23 11:02:37;;;;;;;28.50;26.90;;;20.70;58.90;;;;;;5037461;28;20531;-73
2021/09/23 11:05:11;;;;;;;30.80;28.50;;;20.80;58.60;;;;;;5049983;28;20462;-72
2021/09/23 11:07:42;;;;;;;30.30;28.40;;;20.90;58.00;;;;;;5051646;28;20478;-73
2021/09/23 11:10:12;;;;;;;30.70;28.17;;;21.00;57.60;;;;;;5045167;28;20476;-76
2021/09/23 11:12:44;;;;;;;30.70;28.80;;;21.00;57.50;;;;;;5043740;28;20451;-76
2021/09/23 11:15:13;;;;;;;30.40;28.60;;;21.10;57.30;;;;;;5044270;28;21013;-74
2021/09/23 11:17:44;;;;;;;30.43;28.47;;;21.30;57.40;;;;;;5043193;28;20447;-73
2021/09/23 11:20:16;;;;;;;30.13;28.40;;;21.30;57.30;;;;;;5037535;28;20486;-75
2021/09/23 11:22:46;;;;;;;32.57;30.57;;;21.40;56.60;;;;;;5051486;28;20586;-73
2021/09/23 11:25:15;;;;;;;29.70;28.00;;;21.50;56.20;;;;;;5039185;28;20472;-72
2021/09/23 11:27:43;;;;;;;29.50;27.77;;;21.50;55.80;;;;;;5032573;28;20500;-73
2021/09/23 11:30:12;;;;;;;29.27;27.67;;;21.50;55.60;;;;;;5050214;28;20479;-72
2021/09/23 11:32:48;;;;;;;29.00;27.30;;;21.60;53.60;;;;;;5038958;28;20830;-74
2021/09/23 11:35:16;;;;;;;29.30;27.70;;;21.70;52.00;;;;;;5053958;28;20463;-73
2021/09/23 11:37:43;;;;;;;30.70;28.87;;;21.80;51.80;;;;;;5051783;28;20965;-73
2021/09/23 11:40:11;;;;;;;29.00;27.27;;;21.80;52.20;;;;;;5050098;28;20475;-74
2021/09/23 11:42:43;;;;;;;31.20;29.10;;;22.00;52.50;;;;;;5038405;28;20458;-74
2021/09/23 11:45:14;;;;;;;30.33;28.73;;;22.00;51.20;;;;;;5040919;28;20461;-74
2021/09/23 11:47:50;;;;;;;30.63;28.93;;;22.00;51.30;;;;;;5046689;28;20498;-74
2021/09/23 11:50:33;;;;;;;29.37;27.77;;;22.00;51.70;;;;;;5058592;28;20478;-73
2021/09/23 11:53:04;;;;;;;30.33;28.53;;;22.20;52.00;;;;;;5037276;28;20469;-73
2021/09/23 11:55:32;;;;;;;29.27;27.50;;;22.20;51.70;;;;;;5049655;28;20455;-75
2021/09/23 11:58:07;;;;;;;30.03;28.33;;;22.40;51.20;;;;;;5049711;28;20508;-74
2021/09/23 12:00:36;;;;;;;30.40;28.60;;;22.50;51.70;;;;;;5042183;28;21017;-74
2021/09/23 12:03:06;;;;;;;32.50;30.63;;;22.60;51.80;;;;;;5055464;28;20964;-75
2021/09/23 12:05:33;;;;;;;31.10;29.20;;;22.70;51.60;;;;;;5038080;28;20476;-74
2021/09/23 12:08:12;;;;;;;28.80;27.13;;;22.70;51.30;;;;;;5037519;28;20476;-75
2021/09/23 12:10:51;;;;;;;30.63;28.93;;;22.70;50.10;;;;;;5050006;28;20475;-74
2021/09/23 12:13:34;;;;;;;29.97;28.10;;;22.70;49.80;;;;;;5049880;28;20489;-74
2021/09/23 12:16:04;;;;;;;29.77;27.87;;;22.60;49.10;;;;;;5051467;28;20451;-73
2021/09/23 12:18:32;;;;;;;28.50;26.90;;;22.60;49.30;;;;;;5044868;28;20919;-74
2021/09/23 12:21:02;;;;;;;28.47;26.80;;;22.80;48.90;;;;;;5047064;28;20477;-74
2021/09/23 12:23:32;;;;;;;29.13;27.53;;;22.70;49.80;;;;;;5037090;28;20533;-75
2021/09/23 12:26:18;;;;;;;29.93;28.23;;;22.90;48.80;;;;;;5049139;28;20967;-74
2021/09/23 12:28:59;;;;;;;28.30;26.60;;;23.00;49.00;;;;;;5051624;28;20455;-71
2021/09/23 12:31:36;;;;;;;28.30;26.70;;;23.10;48.70;;;;;;5034441;28;20473;-73
2021/09/23 12:34:07;;;;;;;29.57;27.87;;;23.10;48.30;;;;;;5032893;28;21036;-74
2021/09/23 12:36:38;;;;;;;30.03;28.00;;;23.20;48.00;;;;;;5044643;28;20957;-73